sensor_id;sensor_type;location;lat;lon;timestamp;P1;durP1;ratioP1;P2;durP2;ratioP2
36575;SDS011;45700;50.930;5.168;2023-03-24T00:02:53;2.88;;;1.50;;
36575;SDS011;45700;50.930;5.168;2023-03-24T00:06:55;1.55;;;1.20;;
36575;SDS011;45700;50.930;5.168;2023-03-24T00:11:00;3.63;;;1.42;;
36575;SDS011;45700;50.930;5.168;2023-03-24T00:15:02;2.70;;;1.33;;
36575;SDS011;45700;50.930;5.168;2023-03-24T00:19:03;3.50;;;1.15;;
36575;SDS011;45700;50.930;5.168;2023-03-24T00:23:04;5.10;;;1.13;;
36575;SDS011;45700;50.930;5.168;2023-03-24T00:27:05;3.13;;;0.98;;
36575;SDS011;45700;50.930;5.168;2023-03-24T00:31:06;4.68;;;1.58;;
36575;SDS011;45700;50.930;5.168;2023-03-24T00:35:08;6.05;;;1.38;;
36575;SDS011;45700;50.930;5.168;2023-03-24T00:39:11;3.75;;;1.38;;
36575;SDS011;45700;50.930;5.168;2023-03-24T00:43:12;3.03;;;1.25;;
36575;SDS011;45700;50.930;5.168;2023-03-24T00:47:13;5.65;;;1.65;;
36575;SDS011;45700;50.930;5.168;2023-03-24T00:51:16;1.95;;;1.30;;
36575;SDS011;45700;50.930;5.168;2023-03-24T00:55:17;2.17;;;1.10;;
36575;SDS011;45700;50.930;5.168;2023-03-24T00:59:20;4.18;;;1.50;;
36575;SDS011;45700;50.930;5.168;2023-03-24T01:03:24;3.72;;;1.67;;
36575;SDS011;45700;50.930;5.168;2023-03-24T01:07:28;3.15;;;1.42;;
36575;SDS011;45700;50.930;5.168;2023-03-24T01:11:32;2.85;;;1.30;;
36575;SDS011;45700;50.930;5.168;2023-03-24T01:15:34;2.60;;;1.38;;
36575;SDS011;45700;50.930;5.168;2023-03-24T01:19:35;2.67;;;1.48;;
36575;SDS011;45700;50.930;5.168;2023-03-24T01:23:37;2.55;;;1.40;;
36575;SDS011;45700;50.930;5.168;2023-03-24T01:27:38;3.40;;;2.00;;
36575;SDS011;45700;50.930;5.168;2023-03-24T01:31:39;4.63;;;2.03;;
36575;SDS011;45700;50.930;5.168;2023-03-24T01:35:40;4.47;;;1.92;;
36575;SDS011;45700;50.930;5.168;2023-03-24T01:39:41;5.03;;;2.13;;
36575;SDS011;45700;50.930;5.168;2023-03-24T01:43:42;4.40;;;2.58;;
36575;SDS011;45700;50.930;5.168;2023-03-24T01:47:43;2.13;;;1.70;;
36575;SDS011;45700;50.930;5.168;2023-03-24T01:51:46;5.82;;;1.98;;
36575;SDS011;45700;50.930;5.168;2023-03-24T01:55:47;3.40;;;1.77;;
36575;SDS011;45700;50.930;5.168;2023-03-24T01:59:50;4.68;;;2.03;;
36575;SDS011;45700;50.930;5.168;2023-03-24T02:03:53;1.88;;;1.50;;
36575;SDS011;45700;50.930;5.168;2023-03-24T02:08:05;5.68;;;2.22;;
36575;SDS011;45700;50.930;5.168;2023-03-24T02:12:06;3.10;;;2.05;;
36575;SDS011;45700;50.930;5.168;2023-03-24T02:29:29;2.00;;;1.30;;
36575;SDS011;45700;50.930;5.168;2023-03-24T02:46:11;2.65;;;1.40;;
36575;SDS011;45700;50.930;5.168;2023-03-24T02:50:19;2.70;;;1.77;;
36575;SDS011;45700;50.930;5.168;2023-03-24T02:58:30;4.32;;;2.00;;
36575;SDS011;45700;50.930;5.168;2023-03-24T03:02:38;5.20;;;2.22;;
36575;SDS011;45700;50.930;5.168;2023-03-24T03:06:42;4.47;;;1.75;;
36575;SDS011;45700;50.930;5.168;2023-03-24T03:10:45;4.72;;;2.40;;
36575;SDS011;45700;50.930;5.168;2023-03-24T03:14:48;2.67;;;1.48;;
36575;SDS011;45700;50.930;5.168;2023-03-24T03:18:53;3.28;;;1.67;;
36575;SDS011;45700;50.930;5.168;2023-03-24T03:23:03;4.88;;;1.27;;
36575;SDS011;45700;50.930;5.168;2023-03-24T03:27:10;1.38;;;1.05;;
36575;SDS011;45700;50.930;5.168;2023-03-24T03:31:13;6.30;;;0.85;;
36575;SDS011;45700;50.930;5.168;2023-03-24T03:35:18;2.92;;;0.40;;
36575;SDS011;45700;50.930;5.168;2023-03-24T03:39:23;1.38;;;0.50;;
36575;SDS011;45700;50.930;5.168;2023-03-24T03:43:27;5.18;;;0.57;;
36575;SDS011;45700;50.930;5.168;2023-03-24T03:47:30;7.75;;;1.38;;
36575;SDS011;45700;50.930;5.168;2023-03-24T03:51:31;3.15;;;0.88;;
36575;SDS011;45700;50.930;5.168;2023-03-24T03:55:32;3.60;;;0.60;;
36575;SDS011;45700;50.930;5.168;2023-03-24T03:59:35;1.60;;;0.35;;
36575;SDS011;45700;50.930;5.168;2023-03-24T04:16:08;1.85;;;0.30;;
36575;SDS011;45700;50.930;5.168;2023-03-24T04:24:34;5.82;;;0.50;;
36575;SDS011;45700;50.930;5.168;2023-03-24T04:28:38;8.68;;;0.80;;
36575;SDS011;45700;50.930;5.168;2023-03-24T04:32:46;4.88;;;1.05;;
36575;SDS011;45700;50.930;5.168;2023-03-24T04:36:50;3.20;;;0.70;;
36575;SDS011;45700;50.930;5.168;2023-03-24T04:40:53;5.60;;;0.68;;
36575;SDS011;45700;50.930;5.168;2023-03-24T04:44:56;7.40;;;0.70;;
36575;SDS011;45700;50.930;5.168;2023-03-24T04:48:57;4.47;;;0.70;;
36575;SDS011;45700;50.930;5.168;2023-03-24T04:52:58;1.63;;;0.32;;
36575;SDS011;45700;50.930;5.168;2023-03-24T04:57:00;4.28;;;1.48;;
36575;SDS011;45700;50.930;5.168;2023-03-24T05:01:01;7.32;;;1.05;;
36575;SDS011;45700;50.930;5.168;2023-03-24T05:05:02;3.97;;;1.40;;
36575;SDS011;45700;50.930;5.168;2023-03-24T05:09:03;4.32;;;0.70;;
36575;SDS011;45700;50.930;5.168;2023-03-24T05:13:04;5.35;;;1.33;;
36575;SDS011;45700;50.930;5.168;2023-03-24T05:17:06;4.38;;;1.08;;
36575;SDS011;45700;50.930;5.168;2023-03-24T05:21:07;6.38;;;1.02;;
36575;SDS011;45700;50.930;5.168;2023-03-24T05:25:08;4.47;;;1.33;;
36575;SDS011;45700;50.930;5.168;2023-03-24T05:29:09;6.40;;;1.58;;
36575;SDS011;45700;50.930;5.168;2023-03-24T05:33:10;8.68;;;1.40;;
36575;SDS011;45700;50.930;5.168;2023-03-24T05:37:11;9.75;;;1.33;;
36575;SDS011;45700;50.930;5.168;2023-03-24T05:41:15;8.88;;;1.27;;
36575;SDS011;45700;50.930;5.168;2023-03-24T05:45:16;7.57;;;1.65;;
36575;SDS011;45700;50.930;5.168;2023-03-24T05:49:18;11.50;;;2.65;;
36575;SDS011;45700;50.930;5.168;2023-03-24T05:53:19;10.65;;;1.73;;
36575;SDS011;45700;50.930;5.168;2023-03-24T05:57:20;8.30;;;2.28;;
36575;SDS011;45700;50.930;5.168;2023-03-24T06:01:21;6.85;;;1.70;;
36575;SDS011;45700;50.930;5.168;2023-03-24T06:05:24;11.68;;;1.77;;
36575;SDS011;45700;50.930;5.168;2023-03-24T06:09:26;11.50;;;1.25;;
36575;SDS011;45700;50.930;5.168;2023-03-24T06:13:36;16.02;;;1.45;;
36575;SDS011;45700;50.930;5.168;2023-03-24T06:17:37;7.55;;;1.65;;
36575;SDS011;45700;50.930;5.168;2023-03-24T06:21:38;14.02;;;1.83;;
36575;SDS011;45700;50.930;5.168;2023-03-24T06:25:39;7.45;;;1.33;;
36575;SDS011;45700;50.930;5.168;2023-03-24T06:29:43;6.28;;;1.33;;
36575;SDS011;45700;50.930;5.168;2023-03-24T06:33:44;14.13;;;1.63;;
36575;SDS011;45700;50.930;5.168;2023-03-24T06:37:45;5.78;;;1.10;;
36575;SDS011;45700;50.930;5.168;2023-03-24T06:41:46;9.43;;;1.15;;
36575;SDS011;45700;50.930;5.168;2023-03-24T06:45:47;9.90;;;1.25;;
36575;SDS011;45700;50.930;5.168;2023-03-24T06:49:48;13.80;;;1.80;;
36575;SDS011;45700;50.930;5.168;2023-03-24T06:53:49;8.73;;;1.35;;
36575;SDS011;45700;50.930;5.168;2023-03-24T06:57:50;13.07;;;1.60;;
36575;SDS011;45700;50.930;5.168;2023-03-24T07:01:52;6.13;;;1.00;;
36575;SDS011;45700;50.930;5.168;2023-03-24T07:05:53;7.18;;;1.00;;
36575;SDS011;45700;50.930;5.168;2023-03-24T07:09:54;3.80;;;0.90;;
36575;SDS011;45700;50.930;5.168;2023-03-24T07:13:55;11.25;;;1.17;;
36575;SDS011;45700;50.930;5.168;2023-03-24T07:17:56;12.30;;;1.05;;
36575;SDS011;45700;50.930;5.168;2023-03-24T07:21:57;9.20;;;0.90;;
36575;SDS011;45700;50.930;5.168;2023-03-24T07:25:58;8.40;;;1.40;;
36575;SDS011;45700;50.930;5.168;2023-03-24T07:30:00;6.22;;;0.90;;
36575;SDS011;45700;50.930;5.168;2023-03-24T07:34:02;7.90;;;1.02;;
36575;SDS011;45700;50.930;5.168;2023-03-24T07:38:03;4.93;;;1.05;;
36575;SDS011;45700;50.930;5.168;2023-03-24T07:42:04;12.02;;;1.55;;
36575;SDS011;45700;50.930;5.168;2023-03-24T07:46:05;8.25;;;1.40;;
36575;SDS011;45700;50.930;5.168;2023-03-24T07:50:07;7.63;;;1.35;;
36575;SDS011;45700;50.930;5.168;2023-03-24T07:54:11;7.20;;;1.35;;
36575;SDS011;45700;50.930;5.168;2023-03-24T07:58:12;7.63;;;1.50;;
36575;SDS011;45700;50.930;5.168;2023-03-24T08:02:16;10.82;;;1.38;;
36575;SDS011;45700;50.930;5.168;2023-03-24T08:06:17;13.05;;;1.60;;
36575;SDS011;45700;50.930;5.168;2023-03-24T08:10:19;8.20;;;2.13;;
36575;SDS011;45700;50.930;5.168;2023-03-24T08:14:21;14.32;;;2.50;;
36575;SDS011;45700;50.930;5.168;2023-03-24T08:18:23;10.93;;;2.63;;
36575;SDS011;45700;50.930;5.168;2023-03-24T08:22:24;11.75;;;2.33;;
36575;SDS011;45700;50.930;5.168;2023-03-24T08:26:26;14.98;;;1.88;;
36575;SDS011;45700;50.930;5.168;2023-03-24T08:30:27;12.10;;;2.10;;
36575;SDS011;45700;50.930;5.168;2023-03-24T08:34:28;15.25;;;2.42;;
36575;SDS011;45700;50.930;5.168;2023-03-24T08:38:29;7.80;;;1.75;;
36575;SDS011;45700;50.930;5.168;2023-03-24T08:42:30;4.68;;;1.63;;
36575;SDS011;45700;50.930;5.168;2023-03-24T08:46:31;6.85;;;1.65;;
36575;SDS011;45700;50.930;5.168;2023-03-24T08:50:33;5.72;;;1.70;;
36575;SDS011;45700;50.930;5.168;2023-03-24T08:54:35;5.75;;;2.00;;
36575;SDS011;45700;50.930;5.168;2023-03-24T08:58:36;10.45;;;1.60;;
36575;SDS011;45700;50.930;5.168;2023-03-24T09:02:37;4.60;;;1.60;;
36575;SDS011;45700;50.930;5.168;2023-03-24T09:06:38;4.03;;;1.63;;
36575;SDS011;45700;50.930;5.168;2023-03-24T09:10:40;9.80;;;1.90;;
36575;SDS011;45700;50.930;5.168;2023-03-24T09:14:45;3.83;;;1.58;;
36575;SDS011;45700;50.930;5.168;2023-03-24T09:18:47;7.47;;;1.98;;
36575;SDS011;45700;50.930;5.168;2023-03-24T09:22:47;9.32;;;1.10;;
36575;SDS011;45700;50.930;5.168;2023-03-24T09:26:49;7.72;;;2.22;;
36575;SDS011;45700;50.930;5.168;2023-03-24T09:30:54;9.30;;;1.63;;
36575;SDS011;45700;50.930;5.168;2023-03-24T09:34:55;11.73;;;1.67;;
36575;SDS011;45700;50.930;5.168;2023-03-24T09:38:56;8.15;;;1.35;;
36575;SDS011;45700;50.930;5.168;2023-03-24T09:47:03;7.00;;;2.50;;
36575;SDS011;45700;50.930;5.168;2023-03-24T09:51:27;4.32;;;1.17;;
36575;SDS011;45700;50.930;5.168;2023-03-24T09:55:27;5.13;;;1.73;;
36575;SDS011;45700;50.930;5.168;2023-03-24T09:59:35;5.22;;;1.73;;
36575;SDS011;45700;50.930;5.168;2023-03-24T10:03:37;13.18;;;1.60;;
36575;SDS011;45700;50.930;5.168;2023-03-24T10:07:42;9.90;;;1.30;;
36575;SDS011;45700;50.930;5.168;2023-03-24T10:12:31;6.53;;;1.77;;
36575;SDS011;45700;50.930;5.168;2023-03-24T10:20:23;8.50;;;1.48;;
36575;SDS011;45700;50.930;5.168;2023-03-24T10:28:37;5.68;;;1.42;;
36575;SDS011;45700;50.930;5.168;2023-03-24T10:32:40;8.35;;;1.48;;
36575;SDS011;45700;50.930;5.168;2023-03-24T10:36:43;5.72;;;1.73;;
36575;SDS011;45700;50.930;5.168;2023-03-24T10:40:45;11.63;;;2.15;;
36575;SDS011;45700;50.930;5.168;2023-03-24T10:44:47;10.13;;;2.05;;
36575;SDS011;45700;50.930;5.168;2023-03-24T10:48:50;8.18;;;1.45;;
36575;SDS011;45700;50.930;5.168;2023-03-24T10:52:51;6.82;;;2.00;;
36575;SDS011;45700;50.930;5.168;2023-03-24T11:00:59;8.32;;;1.73;;
36575;SDS011;45700;50.930;5.168;2023-03-24T11:05:01;9.90;;;1.90;;
36575;SDS011;45700;50.930;5.168;2023-03-24T11:09:19;8.55;;;1.48;;
36575;SDS011;45700;50.930;5.168;2023-03-24T11:13:31;7.57;;;1.30;;
36575;SDS011;45700;50.930;5.168;2023-03-24T11:17:32;5.50;;;1.25;;
36575;SDS011;45700;50.930;5.168;2023-03-24T11:21:34;5.43;;;1.60;;
36575;SDS011;45700;50.930;5.168;2023-03-24T11:25:36;7.93;;;1.30;;
36575;SDS011;45700;50.930;5.168;2023-03-24T11:29:38;7.22;;;1.25;;
36575;SDS011;45700;50.930;5.168;2023-03-24T11:33:41;13.07;;;1.80;;
36575;SDS011;45700;50.930;5.168;2023-03-24T11:37:43;6.57;;;1.10;;
36575;SDS011;45700;50.930;5.168;2023-03-24T11:45:57;6.72;;;1.45;;
36575;SDS011;45700;50.930;5.168;2023-03-24T11:50:03;7.82;;;1.38;;
36575;SDS011;45700;50.930;5.168;2023-03-24T11:54:13;5.53;;;1.15;;
36575;SDS011;45700;50.930;5.168;2023-03-24T12:18:46;11.95;;;1.00;;
36575;SDS011;45700;50.930;5.168;2023-03-24T12:26:56;12.68;;;1.40;;
36575;SDS011;45700;50.930;5.168;2023-03-24T12:39:11;2.95;;;0.80;;
36575;SDS011;45700;50.930;5.168;2023-03-24T12:43:22;5.65;;;1.08;;
36575;SDS011;45700;50.930;5.168;2023-03-24T12:51:42;4.97;;;1.05;;
36575;SDS011;45700;50.930;5.168;2023-03-24T12:55:47;8.25;;;1.02;;
36575;SDS011;45700;50.930;5.168;2023-03-24T12:59:52;2.00;;;1.05;;
36575;SDS011;45700;50.930;5.168;2023-03-24T13:04:16;4.60;;;0.70;;
36575;SDS011;45700;50.930;5.168;2023-03-24T13:08:23;4.78;;;0.70;;
36575;SDS011;45700;50.930;5.168;2023-03-24T13:12:32;2.30;;;0.60;;
36575;SDS011;45700;50.930;5.168;2023-03-24T13:16:35;3.70;;;0.70;;
36575;SDS011;45700;50.930;5.168;2023-03-24T13:20:48;3.13;;;1.10;;
36575;SDS011;45700;50.930;5.168;2023-03-24T13:24:51;5.38;;;0.60;;
36575;SDS011;45700;50.930;5.168;2023-03-24T13:33:13;3.13;;;0.85;;
36575;SDS011;45700;50.930;5.168;2023-03-24T13:37:16;5.68;;;0.80;;
36575;SDS011;45700;50.930;5.168;2023-03-24T13:41:22;9.93;;;1.08;;
36575;SDS011;45700;50.930;5.168;2023-03-24T13:45:39;4.78;;;1.38;;
36575;SDS011;45700;50.930;5.168;2023-03-24T13:49:46;3.90;;;1.17;;
36575;SDS011;45700;50.930;5.168;2023-03-24T13:53:52;6.97;;;0.88;;
36575;SDS011;45700;50.930;5.168;2023-03-24T13:57:59;9.35;;;1.42;;
36575;SDS011;45700;50.930;5.168;2023-03-24T14:06:14;3.38;;;0.63;;
36575;SDS011;45700;50.930;5.168;2023-03-24T14:14:25;0.57;;;0.35;;
36575;SDS011;45700;50.930;5.168;2023-03-24T14:22:33;1.75;;;0.40;;
36575;SDS011;45700;50.930;5.168;2023-03-24T14:26:35;2.85;;;0.50;;
36575;SDS011;45700;50.930;5.168;2023-03-24T14:30:36;2.08;;;0.40;;
36575;SDS011;45700;50.930;5.168;2023-03-24T14:34:48;17.23;;;0.98;;
36575;SDS011;45700;50.930;5.168;2023-03-24T14:38:49;2.22;;;0.55;;
36575;SDS011;45700;50.930;5.168;2023-03-24T14:42:52;2.25;;;0.40;;
36575;SDS011;45700;50.930;5.168;2023-03-24T14:46:56;1.35;;;0.70;;
36575;SDS011;45700;50.930;5.168;2023-03-24T14:50:58;1.30;;;0.60;;
36575;SDS011;45700;50.930;5.168;2023-03-24T14:55:02;3.50;;;0.95;;
36575;SDS011;45700;50.930;5.168;2023-03-24T14:59:09;1.38;;;0.52;;
36575;SDS011;45700;50.930;5.168;2023-03-24T15:03:20;5.15;;;0.90;;
36575;SDS011;45700;50.930;5.168;2023-03-24T15:07:24;2.70;;;0.57;;
36575;SDS011;45700;50.930;5.168;2023-03-24T15:11:26;10.60;;;0.93;;
36575;SDS011;45700;50.930;5.168;2023-03-24T15:15:28;0.60;;;0.45;;
36575;SDS011;45700;50.930;5.168;2023-03-24T15:19:29;2.90;;;0.85;;
36575;SDS011;45700;50.930;5.168;2023-03-24T15:23:30;4.35;;;0.47;;
36575;SDS011;45700;50.930;5.168;2023-03-24T15:27:31;3.75;;;0.80;;
36575;SDS011;45700;50.930;5.168;2023-03-24T15:31:33;6.25;;;0.80;;
36575;SDS011;45700;50.930;5.168;2023-03-24T15:35:34;3.55;;;0.85;;
36575;SDS011;45700;50.930;5.168;2023-03-24T15:39:36;2.03;;;0.50;;
36575;SDS011;45700;50.930;5.168;2023-03-24T15:43:45;1.67;;;0.57;;
36575;SDS011;45700;50.930;5.168;2023-03-24T15:47:49;10.13;;;0.60;;
36575;SDS011;45700;50.930;5.168;2023-03-24T15:51:52;1.25;;;0.50;;
36575;SDS011;45700;50.930;5.168;2023-03-24T16:00:13;2.72;;;0.50;;
36575;SDS011;45700;50.930;5.168;2023-03-24T16:04:16;3.65;;;0.68;;
36575;SDS011;45700;50.930;5.168;2023-03-24T16:08:25;3.25;;;1.00;;
36575;SDS011;45700;50.930;5.168;2023-03-24T16:16:28;7.78;;;0.93;;
36575;SDS011;45700;50.930;5.168;2023-03-24T16:20:30;3.17;;;0.77;;
36575;SDS011;45700;50.930;5.168;2023-03-24T16:24:31;2.65;;;0.63;;
36575;SDS011;45700;50.930;5.168;2023-03-24T16:28:32;6.65;;;0.57;;
36575;SDS011;45700;50.930;5.168;2023-03-24T16:32:33;4.38;;;0.75;;
36575;SDS011;45700;50.930;5.168;2023-03-24T16:36:34;4.35;;;0.65;;
36575;SDS011;45700;50.930;5.168;2023-03-24T16:40:48;3.83;;;0.85;;
36575;SDS011;45700;50.930;5.168;2023-03-24T16:44:50;2.28;;;0.70;;
36575;SDS011;45700;50.930;5.168;2023-03-24T16:48:51;2.65;;;0.70;;
36575;SDS011;45700;50.930;5.168;2023-03-24T16:52:52;3.58;;;0.70;;
36575;SDS011;45700;50.930;5.168;2023-03-24T16:56:54;2.83;;;0.40;;
36575;SDS011;45700;50.930;5.168;2023-03-24T17:00:55;1.48;;;1.00;;
36575;SDS011;45700;50.930;5.168;2023-03-24T17:04:57;2.92;;;0.70;;
36575;SDS011;45700;50.930;5.168;2023-03-24T17:08:58;4.47;;;0.57;;
36575;SDS011;45700;50.930;5.168;2023-03-24T17:13:00;3.25;;;0.40;;
36575;SDS011;45700;50.930;5.168;2023-03-24T17:17:01;5.72;;;1.30;;
36575;SDS011;45700;50.930;5.168;2023-03-24T17:21:03;9.15;;;1.40;;
36575;SDS011;45700;50.930;5.168;2023-03-24T17:25:05;2.65;;;0.68;;
36575;SDS011;45700;50.930;5.168;2023-03-24T17:29:11;3.33;;;0.57;;
36575;SDS011;45700;50.930;5.168;2023-03-24T17:33:12;7.50;;;1.52;;
36575;SDS011;45700;50.930;5.168;2023-03-24T17:37:13;5.80;;;0.82;;
36575;SDS011;45700;50.930;5.168;2023-03-24T17:41:15;4.75;;;0.98;;
36575;SDS011;45700;50.930;5.168;2023-03-24T17:45:16;4.05;;;0.93;;
36575;SDS011;45700;50.930;5.168;2023-03-24T17:49:18;3.70;;;0.80;;
36575;SDS011;45700;50.930;5.168;2023-03-24T17:53:19;3.13;;;0.60;;
36575;SDS011;45700;50.930;5.168;2023-03-24T17:57:24;1.15;;;0.50;;
36575;SDS011;45700;50.930;5.168;2023-03-24T18:01:25;1.98;;;0.38;;
36575;SDS011;45700;50.930;5.168;2023-03-24T18:05:28;4.05;;;0.45;;
36575;SDS011;45700;50.930;5.168;2023-03-24T18:09:32;3.55;;;0.50;;
36575;SDS011;45700;50.930;5.168;2023-03-24T18:13:33;2.47;;;1.08;;
36575;SDS011;45700;50.930;5.168;2023-03-24T18:17:34;4.75;;;0.60;;
36575;SDS011;45700;50.930;5.168;2023-03-24T18:21:35;3.38;;;0.60;;
36575;SDS011;45700;50.930;5.168;2023-03-24T18:25:37;0.82;;;0.28;;
36575;SDS011;45700;50.930;5.168;2023-03-24T18:29:38;1.10;;;0.55;;
36575;SDS011;45700;50.930;5.168;2023-03-24T18:33:40;0.38;;;0.28;;
36575;SDS011;45700;50.930;5.168;2023-03-24T18:37:45;0.47;;;0.40;;
36575;SDS011;45700;50.930;5.168;2023-03-24T18:41:46;0.90;;;0.63;;
36575;SDS011;45700;50.930;5.168;2023-03-24T18:45:47;0.40;;;0.32;;
36575;SDS011;45700;50.930;5.168;2023-03-24T18:49:48;1.60;;;0.52;;
36575;SDS011;45700;50.930;5.168;2023-03-24T18:53:49;1.33;;;0.40;;
36575;SDS011;45700;50.930;5.168;2023-03-24T18:57:50;1.30;;;0.38;;
36575;SDS011;45700;50.930;5.168;2023-03-24T19:01:51;2.72;;;0.50;;
36575;SDS011;45700;50.930;5.168;2023-03-24T19:05:52;2.38;;;0.50;;
36575;SDS011;45700;50.930;5.168;2023-03-24T19:09:53;1.63;;;0.50;;
36575;SDS011;45700;50.930;5.168;2023-03-24T19:13:54;3.67;;;0.82;;
36575;SDS011;45700;50.930;5.168;2023-03-24T19:17:58;1.35;;;0.50;;
36575;SDS011;45700;50.930;5.168;2023-03-24T19:21:59;3.08;;;0.55;;
36575;SDS011;45700;50.930;5.168;2023-03-24T19:26:01;3.08;;;0.55;;
36575;SDS011;45700;50.930;5.168;2023-03-24T19:30:02;2.25;;;0.40;;
36575;SDS011;45700;50.930;5.168;2023-03-24T19:34:03;2.83;;;0.40;;
36575;SDS011;45700;50.930;5.168;2023-03-24T19:38:05;3.80;;;0.35;;
36575;SDS011;45700;50.930;5.168;2023-03-24T19:42:06;5.18;;;0.65;;
36575;SDS011;45700;50.930;5.168;2023-03-24T19:46:07;3.78;;;0.60;;
36575;SDS011;45700;50.930;5.168;2023-03-24T19:50:09;0.75;;;0.50;;
36575;SDS011;45700;50.930;5.168;2023-03-24T19:54:10;4.57;;;0.77;;
36575;SDS011;45700;50.930;5.168;2023-03-24T19:58:11;0.30;;;0.30;;
36575;SDS011;45700;50.930;5.168;2023-03-24T20:02:15;1.73;;;0.45;;
36575;SDS011;45700;50.930;5.168;2023-03-24T20:06:17;0.93;;;0.50;;
36575;SDS011;45700;50.930;5.168;2023-03-24T20:10:18;0.65;;;0.40;;
36575;SDS011;45700;50.930;5.168;2023-03-24T20:14:20;0.73;;;0.45;;
36575;SDS011;45700;50.930;5.168;2023-03-24T20:18:21;0.38;;;0.30;;
36575;SDS011;45700;50.930;5.168;2023-03-24T20:22:22;0.82;;;0.40;;
36575;SDS011;45700;50.930;5.168;2023-03-24T20:26:23;1.88;;;0.32;;
36575;SDS011;45700;50.930;5.168;2023-03-24T20:30:24;1.23;;;0.50;;
36575;SDS011;45700;50.930;5.168;2023-03-24T20:34:27;1.00;;;0.40;;
36575;SDS011;45700;50.930;5.168;2023-03-24T20:38:28;0.75;;;0.40;;
36575;SDS011;45700;50.930;5.168;2023-03-24T20:42:29;0.47;;;0.32;;
36575;SDS011;45700;50.930;5.168;2023-03-24T20:46:31;2.60;;;0.68;;
36575;SDS011;45700;50.930;5.168;2023-03-24T20:50:32;1.75;;;0.40;;
36575;SDS011;45700;50.930;5.168;2023-03-24T20:54:33;2.85;;;0.50;;
36575;SDS011;45700;50.930;5.168;2023-03-24T20:58:35;4.07;;;0.57;;
36575;SDS011;45700;50.930;5.168;2023-03-24T21:02:36;2.72;;;0.80;;
36575;SDS011;45700;50.930;5.168;2023-03-24T21:06:40;1.27;;;0.50;;
36575;SDS011;45700;50.930;5.168;2023-03-24T21:10:42;4.53;;;0.60;;
36575;SDS011;45700;50.930;5.168;2023-03-24T21:14:43;3.75;;;0.93;;
36575;SDS011;45700;50.930;5.168;2023-03-24T21:18:45;5.88;;;1.23;;
36575;SDS011;45700;50.930;5.168;2023-03-24T21:22:47;3.53;;;1.02;;
36575;SDS011;45700;50.930;5.168;2023-03-24T21:26:54;3.92;;;1.40;;
36575;SDS011;45700;50.930;5.168;2023-03-24T21:30:56;1.67;;;1.05;;
36575;SDS011;45700;50.930;5.168;2023-03-24T21:34:57;5.15;;;0.80;;
36575;SDS011;45700;50.930;5.168;2023-03-24T21:38:58;2.70;;;0.80;;
36575;SDS011;45700;50.930;5.168;2023-03-24T21:42:59;0.98;;;0.70;;
36575;SDS011;45700;50.930;5.168;2023-03-24T21:47:03;4.60;;;0.50;;
36575;SDS011;45700;50.930;5.168;2023-03-24T21:51:04;0.95;;;0.40;;
36575;SDS011;45700;50.930;5.168;2023-03-24T21:55:06;4.13;;;0.60;;
36575;SDS011;45700;50.930;5.168;2023-03-24T21:59:07;2.63;;;0.75;;
36575;SDS011;45700;50.930;5.168;2023-03-24T22:03:10;1.00;;;0.30;;
36575;SDS011;45700;50.930;5.168;2023-03-24T22:07:11;2.70;;;0.45;;
36575;SDS011;45700;50.930;5.168;2023-03-24T22:11:12;0.77;;;0.57;;
36575;SDS011;45700;50.930;5.168;2023-03-24T22:15:14;1.70;;;0.50;;
36575;SDS011;45700;50.930;5.168;2023-03-24T22:19:15;1.17;;;0.50;;
36575;SDS011;45700;50.930;5.168;2023-03-24T22:23:16;1.25;;;0.50;;
36575;SDS011;45700;50.930;5.168;2023-03-24T22:27:18;0.52;;;0.30;;
36575;SDS011;45700;50.930;5.168;2023-03-24T22:31:20;2.05;;;0.45;;
36575;SDS011;45700;50.930;5.168;2023-03-24T22:35:23;2.03;;;0.63;;
36575;SDS011;45700;50.930;5.168;2023-03-24T22:39:24;1.02;;;0.50;;
36575;SDS011;45700;50.930;5.168;2023-03-24T22:43:25;2.50;;;0.43;;
36575;SDS011;45700;50.930;5.168;2023-03-24T22:47:29;6.20;;;1.00;;
36575;SDS011;45700;50.930;5.168;2023-03-24T22:51:30;3.88;;;0.65;;
36575;SDS011;45700;50.930;5.168;2023-03-24T22:55:31;1.15;;;0.70;;
36575;SDS011;45700;50.930;5.168;2023-03-24T22:59:32;1.23;;;0.40;;
36575;SDS011;45700;50.930;5.168;2023-03-24T23:03:34;2.67;;;0.77;;
36575;SDS011;45700;50.930;5.168;2023-03-24T23:07:35;2.58;;;0.63;;
36575;SDS011;45700;50.930;5.168;2023-03-24T23:11:36;5.22;;;0.93;;
36575;SDS011;45700;50.930;5.168;2023-03-24T23:15:37;2.92;;;0.63;;
36575;SDS011;45700;50.930;5.168;2023-03-24T23:19:41;3.85;;;0.77;;
36575;SDS011;45700;50.930;5.168;2023-03-24T23:23:42;1.80;;;0.63;;
36575;SDS011;45700;50.930;5.168;2023-03-24T23:27:43;3.35;;;0.75;;
36575;SDS011;45700;50.930;5.168;2023-03-24T23:31:45;3.42;;;0.93;;
36575;SDS011;45700;50.930;5.168;2023-03-24T23:35:49;2.83;;;0.70;;
36575;SDS011;45700;50.930;5.168;2023-03-24T23:43:57;6.18;;;1.65;;
36575;SDS011;45700;50.930;5.168;2023-03-24T23:47:58;2.22;;;0.98;;
36575;SDS011;45700;50.930;5.168;2023-03-24T23:51:59;8.27;;;0.80;;
36575;SDS011;45700;50.930;5.168;2023-03-24T23:56:02;2.35;;;0.52;;
